Time;durP1;ratioP1;P1;durP2;ratioP2;P2;SDS_P1;SDS_P2;PMS_P1;PMS_P2;Temp;Humidity;BMP_temperature;BMP_pressure;BME280_temperature;BME280_humidity;BME280_pressure;Samples;Min_cycle;Max_cycle;Signal;HPM_P1;HPM_P2
2022/11/08 00:04:36;;;;;;;;;48.75;38.50;;;;;15.40;71.89;101516.22;146618;582;46020;-70
2022/11/08 00:14:23;;;;;;;;;35.25;31.50;;;;;14.76;72.78;101415.84;146613;620;46012;-70
2022/11/08 00:17:23;;;;;;;;;37.25;32.00;;;;;15.30;73.21;101512.31;146618;619;46019;-69
2022/11/08 00:20:24;;;;;;;;;36.50;31.00;;;;;15.31;72.88;101511.47;146612;578;46016;-70
2022/11/08 00:23:36;;;;;;;;;40.75;34.00;;;;;15.31;72.24;101511.47;146619;583;46021;-70
2022/11/08 00:26:34;;;;;;;;;42.75;32.25;;;;;15.27;72.68;101511.28;146604;727;47916;-70
2022/11/08 00:29:31;;;;;;;;;32.00;30.50;;;;;15.20;72.98;101511.00;146617;602;45020;-70
2022/11/08 00:32:31;;;;;;;;;45.00;34.75;;;;;15.17;73.17;101505.66;146612;627;46016;-70
2022/11/08 00:35:23;;;;;;;;;38.25;31.50;;;;;15.17;72.71;101508.25;146614;630;46010;-69
2022/11/08 00:38:30;;;;;;;;;40.00;31.50;;;;;13.65;72.37;101242.06;146612;610;46017;-70
2022/11/08 00:41:23;;;;;;;;;30.25;28.25;;;;;15.13;72.77;101498.47;146612;604;46020;-69
2022/11/08 00:44:29;;;;;;;;;32.25;28.50;;;;;15.12;72.76;101491.47;146612;569;46016;-70
2022/11/08 00:47:40;;;;;;;;;34.75;31.00;;;;;15.14;72.92;101487.22;146614;583;46020;-69
2022/11/08 00:50:46;;;;;;;;;33.00;29.00;;;;;15.14;72.88;101483.69;146612;612;47014;-70
2022/11/08 00:53:55;;;;;;;;;40.25;33.25;;;;;15.10;72.72;101477.44;146614;670;46014;-69
2022/11/08 00:56:47;;;;;;;;;41.00;32.50;;;;;15.08;73.02;101476.50;146611;584;46016;-70
2022/11/08 00:59:47;;;;;;;;;35.25;30.75;;;;;15.06;72.36;101469.41;146616;647;46010;-70
2022/11/08 01:06:18;;;;;;;;;38.50;32.00;;;;;14.98;72.33;101467.34;146616;583;46020;-66
2022/11/08 01:09:26;;;;;;;;;;;;;;;;;;;;;
2022/11/08 01:12:38;;;;;;;;;30.75;29.00;;;;;14.93;72.95;101468.84;146619;724;46032;-64
2022/11/08 01:15:35;;;;;;;;;39.50;32.50;;;;;14.83;73.12;101456.22;146614;592;46016;-65
2022/11/08 01:18:33;;;;;;;;;34.00;30.00;;;;;14.82;72.57;101462.25;146611;646;46010;-66
2022/11/08 01:21:32;;;;;;;;;36.25;30.75;;;;;14.78;73.65;101458.59;146612;683;46916;-66
2022/11/08 01:24:27;;;;;;;;;30.25;28.75;;;;;14.77;73.81;101464.66;146616;631;45021;-67
2022/11/08 01:27:25;;;;;;;;;37.50;30.75;;;;;14.73;73.68;101459.22;146614;663;46012;-66
2022/11/08 01:30:20;;;;;;;;;33.75;30.00;;;;;14.72;74.22;101454.81;146613;580;46020;-66
2022/11/08 01:33:21;;;;;;;;;36.25;30.75;;;;;14.66;73.76;101459.75;146614;573;46016;-67
2022/11/08 01:36:20;;;;;;;;;32.75;29.00;;;;;14.61;73.82;101449.12;146615;565;46010;-67
2022/11/08 01:39:20;;;;;;;;;33.25;30.50;;;;;14.59;74.40;101461.19;146613;583;46013;-66
2022/11/08 01:42:20;;;;;;;;;34.25;28.75;;;;;14.56;74.52;101455.81;146611;593;46020;-67
2022/11/08 01:45:37;;;;;;;;;29.75;28.25;;;;;14.54;74.58;101455.75;146611;564;46013;-72
2022/11/08 01:48:36;;;;;;;;;30.75;29.75;;;;;14.54;74.83;101453.13;146612;570;46020;-71
2022/11/08 01:52:03;;;;;;;;;36.25;31.25;;;;;14.53;74.25;101456.56;146614;628;46016;-71
2022/11/08 01:55:25;;;;;;;;;35.75;31.00;;;;;14.51;73.80;101457.31;146621;583;46010;-69
2022/11/08 01:58:25;;;;;;;;;35.75;31.50;;;;;14.45;73.79;101454.37;146617;597;46016;-69
2022/11/08 02:01:28;;;;;;;;;29.25;27.50;;;;;14.44;73.68;101461.31;146618;664;46021;-72
2022/11/08 02:04:21;;;;;;;;;37.75;31.00;;;;;14.39;73.62;101457.63;146613;646;46012;-71
2022/11/08 02:07:25;;;;;;;;;32.75;29.00;;;;;14.34;73.43;101459.09;146621;587;46010;-75
2022/11/08 02:10:17;;;;;;;;;29.75;27.50;;;;;14.29;73.83;101463.19;146611;567;46916;-69
2022/11/08 02:13:21;;;;;;;;;40.00;32.25;;;;;14.21;73.92;101455.03;146617;576;46010;-69
2022/11/08 02:16:19;;;;;;;;;46.00;36.50;;;;;14.15;73.74;101457.34;146612;573;46916;-69
2022/11/08 02:19:53;;;;;;;;;41.75;33.50;;;;;14.07;74.24;101469.09;146616;590;46020;-72
2022/11/08 02:22:54;;;;;;;;;35.25;31.50;;;;;13.92;74.86;101461.41;146613;769;46017;-71
2022/11/08 02:25:52;;;;;;;;;39.00;32.00;;;;;13.80;75.06;101452.97;146616;569;46020;-71
2022/11/08 02:28:54;;;;;;;;;32.25;28.75;;;;;13.74;75.43;101453.59;146611;571;46016;-72
2022/11/08 02:31:55;;;;;;;;;39.00;30.00;;;;;13.73;76.28;101456.09;146618;587;46021;-72
2022/11/08 02:35:17;;;;;;;;;35.50;30.25;;;;;13.75;76.41;101444.94;146614;569;46012;-72
2022/11/08 02:38:14;;;;;;;;;31.75;29.00;;;;;13.75;77.84;101444.06;146615;612;46010;-72
2022/11/08 02:41:12;;;;;;;;;35.25;29.50;;;;;13.71;77.90;101440.41;146612;579;46016;-72
2022/11/08 02:44:14;;;;;;;;;31.25;27.50;;;;;13.73;77.51;101440.47;146615;602;46020;-72
2022/11/08 02:47:16;;;;;;;;;29.50;28.50;;;;;13.72;77.16;101444.78;146617;565;46012;-73
2022/11/08 02:50:26;;;;;;;;;29.50;23.25;;;;;13.76;77.40;101449.34;146612;585;46020;-72
2022/11/08 02:53:22;;;;;;;;;30.75;28.25;;;;;13.80;77.14;101450.37;146613;626;46016;-73
2022/11/08 02:56:22;;;;;;;;;33.25;29.00;;;;;13.79;76.68;101441.66;146616;575;45030;-73
2022/11/08 02:59:22;;;;;;;;;27.75;23.75;;;;;13.95;76.67;101455.47;146612;565;46016;-73
2022/11/08 03:02:27;;;;;;;;;30.75;26.75;;;;;14.03;76.72;101456.75;146617;611;46020;-73
2022/11/08 03:05:26;;;;;;;;;33.75;28.75;;;;;14.09;76.46;101463.13;146613;620;46016;-72
2022/11/08 03:08:19;;;;;;;;;32.25;27.75;;;;;14.16;76.13;101456.50;146618;622;46021;-73
2022/11/08 03:11:11;;;;;;;;;32.75;30.00;;;;;14.21;75.46;101460.25;146613;563;46016;-72
2022/11/08 03:14:03;;;;;;;;;28.75;28.25;;;;;14.24;75.10;101460.37;146613;585;46020;-72
2022/11/08 03:16:55;;;;;;;;;39.50;32.00;;;;;14.26;74.81;101463.06;146611;598;46016;-72
2022/11/08 03:19:48;;;;;;;;;33.50;30.50;;;;;14.24;74.97;101459.50;146611;580;47010;-73
2022/11/08 03:22:43;;;;;;;;;41.75;33.75;;;;;14.23;75.41;101460.31;146613;573;46017;-71
2022/11/08 03:25:39;;;;;;;;;38.00;32.50;;;;;14.21;75.29;101465.47;146616;577;45020;-73
2022/11/08 03:28:31;;;;;;;;;41.00;35.50;;;;;13.05;75.45;101262.56;146610;622;46013;-73
2022/11/08 03:31:28;;;;;;;;;44.50;34.75;;;;;14.18;75.75;101467.91;146605;625;47010;-72
2022/11/08 03:34:26;;;;;;;;;40.25;33.25;;;;;14.17;76.25;101473.94;146611;569;46914;-73
2022/11/08 03:37:22;;;;;;;;;42.00;34.50;;;;;14.13;76.13;101472.00;146614;566;46011;-72
2022/11/08 03:40:19;;;;;;;;;37.25;32.75;;;;;14.07;76.08;101477.81;146612;596;46014;-73
2022/11/08 03:43:20;;;;;;;;;42.75;34.25;;;;;14.04;76.00;101474.16;146618;587;46020;-72
2022/11/08 03:46:16;;;;;;;;;40.25;32.50;;;;;14.02;76.50;101481.03;146609;631;46014;-72
2022/11/08 03:49:21;;;;;;;;;32.25;30.75;;;;;12.60;76.12;101243.81;146613;600;46020;-72
2022/11/08 03:52:15;;;;;;;;;38.50;32.00;;;;;13.88;76.47;101479.44;146613;597;46014;-72
2022/11/08 03:55:19;;;;;;;;;36.50;31.00;;;;;13.92;76.76;101491.81;146615;606;46010;-72
2022/11/08 03:58:14;;;;;;;;;37.25;32.75;;;;;13.85;76.79;101494.09;146611;619;46016;-72
2022/11/08 04:01:10;;;;;;;;;39.75;29.75;;;;;13.82;76.87;101493.06;146617;626;46020;-72
2022/11/08 04:04:13;;;;;;;;;35.00;31.50;;;;;13.80;76.95;101498.22;146607;609;46016;-72
2022/11/08 04:07:05;;;;;;;;;31.25;28.00;;;;;13.79;76.92;101504.22;146615;564;46021;-72
2022/11/08 04:10:01;;;;;;;;;33.50;30.75;;;;;13.78;76.58;101502.44;146611;636;46016;-72
2022/11/08 04:16:30;;;;;;;;;34.00;30.00;;;;;13.80;76.77;101498.22;146611;569;46016;-72
2022/11/08 04:22:54;;;;;;;;;38.00;32.50;;;;;13.78;76.87;101502.44;146612;595;46012;-72
2022/11/08 04:25:59;;;;;;;;;44.75;36.75;;;;;13.76;76.71;101497.97;146616;652;46010;-72
2022/11/08 04:29:12;;;;;;;;;50.75;38.75;;;;;13.67;77.01;101495.78;146613;647;46016;-72
2022/11/08 04:32:07;;;;;;;;;43.75;35.50;;;;;13.55;77.22;101500.34;146614;614;46020;-72
2022/11/08 04:35:05;;;;;;;;;37.25;32.50;;;;;13.48;77.19;101504.37;146612;587;46016;-72
2022/11/08 04:38:06;;;;;;;;;34.75;31.00;;;;;13.43;77.32;101499.72;146611;570;46010;-72
2022/11/08 04:41:11;;;;;;;;;33.00;29.00;;;;;13.37;77.03;101502.94;146612;629;46016;-71
2022/11/08 04:44:14;;;;;;;;;39.25;32.25;;;;;13.32;77.23;101494.87;146618;647;45021;-72
2022/11/08 04:47:06;;;;;;;;;33.75;31.00;;;;;13.29;77.88;101492.09;146611;617;46016;-72
2022/11/08 04:50:04;;;;;;;;;37.75;32.75;;;;;13.23;77.71;101496.94;146613;631;46020;-72
2022/11/08 04:53:09;;;;;;;;;36.75;32.00;;;;;13.19;77.84;101489.78;146611;611;47017;-73
2022/11/08 04:56:28;;;;;;;;;35.00;29.25;;;;;10.77;77.36;101078.94;146613;589;46014;-71
2022/11/08 04:59:34;;;;;;;;;34.75;29.25;;;;;13.08;77.79;101503.94;146612;593;46017;-72
2022/11/08 05:02:40;;;;;;;;;44.75;33.25;;;;;13.05;77.96;101503.78;146614;589;46020;-72
2022/11/08 05:05:46;;;;;;;;;32.25;30.00;;;;;13.03;78.28;101502.81;146612;581;46017;-72
2022/11/08 05:08:54;;;;;;;;;;;;;;;;;;;;;
2022/11/08 05:11:47;;;;;;;;;37.00;31.75;;;;;12.92;77.92;101499.62;146617;631;46012;-72
2022/11/08 05:14:49;;;;;;;;;40.75;33.75;;;;;12.89;78.65;101505.56;146619;651;46010;-73
2022/11/08 05:17:52;;;;;;;;;38.25;32.50;;;;;12.85;78.58;101501.00;146614;603;46014;-72
2022/11/08 05:23:58;;;;;;;;;38.00;31.00;;;;;12.94;78.84;101511.91;146617;646;45018;-72
2022/11/08 05:27:01;;;;;;;;;34.75;31.00;;;;;13.08;78.85;101528.31;146623;589;45020;-73
2022/11/08 05:30:01;;;;;;;;;39.50;32.75;;;;;13.17;78.76;101530.47;146613;601;46016;-72
2022/11/08 05:33:08;;;;;;;;;43.75;35.00;;;;;13.22;78.29;101542.03;146620;592;45020;-73
2022/11/08 05:36:09;;;;;;;;;41.00;35.00;;;;;13.23;78.39;101546.44;146609;643;46914;-72
2022/11/08 05:39:05;;;;;;;;;38.25;33.25;;;;;13.20;78.47;101551.47;146616;605;46020;-71
2022/11/08 05:42:12;;;;;;;;;43.00;33.50;;;;;13.16;78.64;101554.72;146612;680;46013;-71
2022/11/08 05:45:20;;;;;;;;;39.25;33.25;;;;;13.14;78.72;101549.44;146615;603;46020;-72
2022/11/08 05:48:22;;;;;;;;;39.75;33.50;;;;;13.15;78.97;101546.03;146611;591;46016;-72
2022/11/08 05:51:24;;;;;;;;;37.50;32.50;;;;;13.18;78.54;101554.00;146609;578;46020;-72
2022/11/08 05:54:57;;;;;;;;;44.00;36.75;;;;;11.86;78.40;101318.69;146612;615;46012;-72
2022/11/08 05:58:02;;;;;;;;;46.00;36.00;;;;;13.28;78.83;101563.25;146617;579;46010;-72
2022/11/08 06:01:06;;;;;;;;;48.25;37.50;;;;;13.35;79.11;101573.16;146617;569;46016;-71
2022/11/08 06:04:13;;;;;;;;;46.00;35.00;;;;;13.43;79.41;101567.47;146617;601;46010;-72
2022/11/08 06:07:07;;;;;;;;;46.75;38.00;;;;;13.51;79.70;101574.88;146611;632;46014;-71
2022/11/08 06:09:59;;;;;;;;;47.50;37.50;;;;;13.60;79.37;101577.97;146614;598;46014;-71
2022/11/08 06:13:11;;;;;;;;;47.50;38.25;;;;;13.69;79.46;101568.84;146612;600;47014;-72
2022/11/08 06:16:14;;;;;;;;;47.75;38.25;;;;;12.58;79.30;101365.09;146616;595;46020;-72
2022/11/08 06:19:14;;;;;;;;;48.50;38.75;;;;;13.91;79.46;101571.75;146611;564;46017;-71
2022/11/08 06:22:10;;;;;;;;;47.00;38.00;;;;;14.06;79.78;101582.06;146613;749;46021;-71
2022/11/08 06:25:05;;;;;;;;;48.00;38.00;;;;;14.33;81.26;101575.63;146612;644;46012;-71
2022/11/08 06:28:01;;;;;;;;;48.75;39.50;;;;;14.94;83.42;101576.81;146616;611;46021;-72
2022/11/08 06:31:24;;;;;;;;;49.00;40.00;;;;;13.50;78.93;101182.28;146614;601;46012;-72
2022/11/08 06:34:22;;;;;;;;;44.50;36.25;;;;;16.66;77.30;101587.84;146615;589;46020;-71
2022/11/08 06:37:20;;;;;;;;;43.50;35.00;;;;;17.40;74.07;101582.87;146613;570;46014;-72
2022/11/08 06:40:35;;;;;;;;;48.25;38.25;;;;;18.03;69.66;101587.75;146615;728;46010;-73
2022/11/08 06:43:37;;;;;;;;;44.00;37.00;;;;;18.38;66.83;101587.25;146614;621;46012;-72
2022/11/08 06:46:34;;;;;;;;;45.00;36.25;;;;;18.46;64.75;101580.50;146615;572;46010;-72
2022/11/08 06:49:40;;;;;;;;;41.25;34.75;;;;;18.41;64.49;101589.97;146611;799;46017;-73
2022/11/08 06:52:45;;;;;;;;;41.25;34.25;;;;;16.21;64.52;101217.91;146613;646;46020;-73
2022/11/08 06:55:45;;;;;;;;;43.50;35.00;;;;;18.33;65.09;101588.81;146611;616;46016;-73
2022/11/08 06:58:37;;;;;;;;;44.75;35.50;;;;;18.30;65.71;101590.44;146616;622;46020;-74
2022/11/08 07:01:42;;;;;;;;;44.75;35.75;;;;;18.31;65.87;101582.59;146611;684;46014;-72
2022/11/08 07:04:40;;;;;;;;;46.75;37.75;;;;;18.38;65.94;101587.25;146615;617;46021;-73
2022/11/08 07:07:38;;;;;;;;;44.25;37.00;;;;;18.42;66.76;101583.88;146607;577;46012;-72
2022/11/08 07:10:39;;;;;;;;;46.00;38.25;;;;;18.52;66.13;101586.78;146612;565;46020;-74
2022/11/08 07:13:46;;;;;;;;;45.50;37.25;;;;;18.66;66.37;101591.66;146613;625;46012;-72
2022/11/08 07:16:47;;;;;;;;;50.00;41.25;;;;;18.83;66.12;101589.59;146615;575;46010;-73
2022/11/08 07:19:51;;;;;;;;;53.75;41.00;;;;;18.97;65.79;101587.41;146613;590;46014;-73
2022/11/08 07:22:58;;;;;;;;;44.25;34.75;;;;;19.07;66.09;101586.81;146615;574;46020;-73
2022/11/08 07:25:55;;;;;;;;;51.25;42.00;;;;;19.19;66.23;101586.31;146614;569;46016;-73
2022/11/08 07:28:47;;;;;;;;;54.00;43.25;;;;;19.30;66.13;101592.75;146618;610;46010;-73
2022/11/08 07:31:42;;;;;;;;;55.50;43.00;;;;;19.44;66.64;101589.63;146613;661;46014;-74
2022/11/08 07:34:37;;;;;;;;;59.50;44.50;;;;;19.55;66.64;101589.09;146614;593;46010;-74
2022/11/08 07:37:29;;;;;;;;;53.25;43.00;;;;;19.65;65.68;101590.28;146611;631;46016;-73
2022/11/08 07:40:21;;;;;;;;;59.50;47.75;;;;;19.67;65.77;101585.06;146617;636;46021;-73
2022/11/08 07:43:16;;;;;;;;;54.25;42.25;;;;;19.74;65.89;101590.53;146611;597;46017;-74
2022/11/08 07:46:13;;;;;;;;;55.75;42.25;;;;;19.83;65.81;101587.25;146612;663;46020;-74
2022/11/08 07:49:16;;;;;;;;;50.75;40.00;;;;;19.82;66.26;101581.12;146610;564;46016;-73
2022/11/08 07:52:11;;;;;;;;;53.50;43.00;;;;;19.78;67.04;101579.25;146611;587;46020;-73
2022/11/08 07:55:15;;;;;;;;;46.00;37.75;;;;;19.74;67.67;101580.00;146612;595;46017;-73
2022/11/08 07:58:12;;;;;;;;;53.00;41.75;;;;;19.76;67.08;101577.44;146617;576;46021;-73
2022/11/08 08:01:15;;;;;;;;;51.50;42.25;;;;;19.80;67.62;101572.28;146607;669;47914;-73
2022/11/08 08:04:11;;;;;;;;;50.75;41.00;;;;;19.91;66.86;101572.59;146618;590;46010;-73
2022/11/08 08:07:11;;;;;;;;;51.25;40.75;;;;;19.94;67.09;101570.03;146613;575;46016;-74
2022/11/08 08:10:15;;;;;;;;;49.25;37.50;;;;;19.99;67.24;101573.66;146616;593;46010;-74
2022/11/08 08:13:17;;;;;;;;;49.75;40.50;;;;;20.12;67.43;101572.22;146611;581;46016;-73
2022/11/08 08:16:14;;;;;;;;;48.00;40.00;;;;;20.31;66.79;101573.59;146613;618;46020;-73
2022/11/08 08:19:13;;;;;;;;;47.25;37.75;;;;;20.48;66.19;101567.00;146612;586;46012;-75
2022/11/08 08:22:25;;;;;;;;;48.00;38.25;;;;;20.58;66.20;101572.53;146613;592;46020;-73
2022/11/08 08:25:19;;;;;;;;;50.00;40.00;;;;;20.59;65.55;101569.03;146612;587;46013;-73
2022/11/08 08:28:27;;;;;;;;;49.50;40.00;;;;;20.64;65.89;101572.66;146614;586;46010;-74
2022/11/08 08:31:28;;;;;;;;;52.00;42.50;;;;;20.71;65.70;101570.19;146612;593;46012;-72
2022/11/08 08:34:26;;;;;;;;;55.25;41.25;;;;;20.77;65.18;101578.25;146613;590;46021;-73
2022/11/08 08:37:21;;;;;;;;;51.50;42.75;;;;;20.86;65.15;101580.22;146612;566;46016;-74
2022/11/08 08:40:29;;;;;;;;;49.00;40.00;;;;;18.88;65.52;101220.13;146616;649;46021;-74
2022/11/08 08:43:23;;;;;;;;;52.75;42.00;;;;;21.13;64.36;101585.22;146614;569;46014;-72
2022/11/08 08:46:24;;;;;;;;;53.25;42.25;;;;;21.23;64.15;101579.28;146613;563;46020;-74
2022/11/08 08:49:20;;;;;;;;;52.00;40.50;;;;;21.31;63.73;101587.34;146614;580;46016;-74
2022/11/08 08:52:16;;;;;;;;;51.25;40.75;;;;;21.35;63.88;101588.31;146608;565;46014;-73
2022/11/08 08:55:13;;;;;;;;;54.75;43.50;;;;;21.39;63.40;101593.69;146612;594;46025;-73
2022/11/08 08:58:14;;;;;;;;;56.50;43.75;;;;;20.50;63.86;101422.16;146614;577;46020;-74
2022/11/08 09:01:41;;;;;;;;;;;;;;;;;;;;;
2022/11/08 09:04:34;;;;;;;;;55.75;43.25;;;;;21.68;62.96;101602.22;146620;595;46010;-73
2022/11/08 09:07:26;;;;;;;;;53.00;42.50;;;;;21.72;62.60;101597.00;146609;742;46916;-74
2022/11/08 09:10:30;;;;;;;;;51.75;41.25;;;;;21.74;62.85;101600.53;146614;648;46021;-74
2022/11/08 09:13:27;;;;;;;;;52.00;41.75;;;;;21.82;62.60;101598.97;146616;588;46012;-74
2022/11/08 09:16:19;;;;;;;;;56.75;44.75;;;;;21.90;61.63;101600.00;146618;573;46020;-73
2022/11/08 09:19:13;;;;;;;;;51.25;41.75;;;;;21.91;61.42;101593.84;146614;715;46017;-73
2022/11/08 09:22:22;;;;;;;;;;;;;;;;;;;;;
2022/11/08 09:25:15;;;;;;;;;51.25;40.00;;;;;21.88;62.24;101602.59;146617;624;46013;-73
2022/11/08 09:28:10;;;;;;;;;50.25;41.50;;;;;21.95;60.73;101600.06;146615;620;46020;-73
2022/11/08 09:31:30;;;;;;;;;49.25;40.50;;;;;20.77;61.01;101387.59;146614;627;46012;-73
2022/11/08 09:34:28;;;;;;;;;53.50;40.50;;;;;21.89;60.68;101595.56;146613;575;46010;-73
2022/11/08 09:37:31;;;;;;;;;50.75;41.00;;;;;21.79;61.29;101589.22;146613;572;46016;-73
2022/11/08 09:41:08;;;;;;;;;50.50;38.75;;;;;20.59;61.88;101396.03;146614;576;48021;-72
2022/11/08 09:45:05;;;;;;;;;47.00;39.00;;;;;19.81;62.24;101244.22;146615;782;46012;-72
2022/11/08 09:48:29;;;;;;;;;49.75;40.00;;;;;20.81;62.22;101389.47;146616;571;46021;-73
2022/11/08 09:51:26;;;;;;;;;52.25;41.25;;;;;22.13;60.88;101587.19;146613;628;46016;-75
2022/11/08 09:54:27;;;;;;;;;48.75;38.25;;;;;22.26;60.54;101585.69;146616;672;46020;-74
2022/11/08 09:57:35;;;;;;;;;53.75;40.00;;;;;22.33;59.11;101574.34;146613;578;46016;-73
2022/11/08 10:00:27;;;;;;;;;48.25;39.25;;;;;22.39;59.80;101581.50;146616;634;45020;-73
2022/11/08 10:03:22;;;;;;;;;49.50;39.75;;;;;22.42;58.77;101582.44;146613;573;46016;-73
2022/11/08 10:06:59;;;;;;;;;50.00;38.50;;;;;22.29;60.43;101581.34;146614;642;46020;-74
2022/11/08 10:10:31;;;;;;;;;49.50;39.25;;;;;22.09;61.65;101574.81;146611;565;46914;-72
2022/11/08 10:13:57;;;;;;;;;53.25;41.00;;;;;22.10;60.09;101579.22;146614;598;46020;-73
2022/11/08 10:17:31;;;;;;;;;48.25;38.00;;;;;21.13;61.89;101368.97;146614;571;46013;-75
2022/11/08 10:21:11;;;;;;;;;49.25;38.75;;;;;21.38;59.77;101364.16;146612;635;46020;-72
2022/11/08 10:24:36;;;;;;;;;53.50;41.25;;;;;22.66;58.83;101562.56;146614;682;46013;-73
2022/11/08 10:27:51;;;;;;;;;47.25;38.75;;;;;22.66;59.43;101550.22;146616;563;46020;-73
2022/11/08 10:30:47;;;;;;;;;50.50;39.25;;;;;22.68;58.57;101553.78;146611;564;47015;-73
2022/11/08 10:34:02;;;;;;;;;51.25;39.25;;;;;21.52;59.42;101338.87;146614;625;46020;-74
2022/11/08 10:37:11;;;;;;;;;47.50;36.25;;;;;22.81;58.56;101550.44;146612;573;46024;-73
2022/11/08 10:40:56;;;;;;;;;53.50;40.00;;;;;22.91;59.56;101547.94;146615;564;46022;-74
2022/11/08 10:44:05;;;;;;;;;45.75;37.50;;;;;22.96;58.92;101551.53;146612;593;46012;-73
2022/11/08 10:47:21;;;;;;;;;51.00;41.25;;;;;22.95;58.05;101539.19;146613;639;46014;-73
2022/11/08 10:50:58;;;;;;;;;51.00;40.25;;;;;22.89;59.29;101541.72;146615;615;46016;-73
2022/11/08 10:54:04;;;;;;;;;46.50;38.00;;;;;22.90;59.21;101533.81;146615;629;46021;-73
2022/11/08 10:57:08;;;;;;;;;44.50;36.25;;;;;22.97;59.51;101529.53;146614;570;46016;-73
2022/11/08 11:00:32;;;;;;;;;43.00;36.00;;;;;21.81;60.87;101309.44;146611;622;46021;-73
2022/11/08 11:03:29;;;;;;;;;43.00;36.00;;;;;23.26;60.10;101521.94;146609;618;47018;-73
2022/11/08 11:06:46;;;;;;;;;51.25;40.25;;;;;23.49;58.83;101520.47;146614;571;46021;-73
2022/11/08 11:09:41;;;;;;;;;43.00;35.00;;;;;23.63;57.33;101511.75;146612;630;47017;-74
2022/11/08 11:12:46;;;;;;;;;43.00;34.75;;;;;23.74;56.36;101513.69;146613;619;46010;-74
2022/11/08 11:16:08;;;;;;;;;45.75;36.75;;;;;21.88;56.83;101177.53;146612;573;46016;-74
2022/11/08 11:19:21;;;;;;;;;43.50;34.75;;;;;23.76;54.92;101510.16;146610;576;46020;-72
2022/11/08 11:22:24;;;;;;;;;41.75;33.50;;;;;23.64;56.10;101497.66;146613;570;46015;-73
2022/11/08 11:25:26;;;;;;;;;40.25;33.50;;;;;23.63;55.96;101509.13;146621;578;46010;-74
2022/11/08 11:28:21;;;;;;;;;37.75;32.25;;;;;23.60;54.80;101504.69;146612;564;46016;-72
2022/11/08 11:31:24;;;;;;;;;37.25;32.50;;;;;23.55;56.08;101482.59;146615;606;46021;-72
2022/11/08 11:34:32;;;;;;;;;34.75;30.25;;;;;23.74;55.20;101492.50;146612;571;46016;-74
2022/11/08 11:37:49;;;;;;;;;34.00;30.00;;;;;23.78;55.34;101488.13;146614;570;46020;-73
2022/11/08 11:41:05;;;;;;;;;35.75;30.75;;;;;22.63;55.04;101275.25;146611;589;46914;-73
2022/11/08 11:44:33;;;;;;;;;39.25;32.50;;;;;23.92;56.21;101481.16;146616;614;46021;-72
2022/11/08 11:47:42;;;;;;;;;37.50;32.00;;;;;24.00;54.30;101472.41;146611;614;46014;-74
2022/11/08 11:50:44;;;;;;;;;35.00;30.25;;;;;24.11;55.46;101474.28;146618;592;46010;-74
2022/11/08 11:53:47;;;;;;;;;37.25;31.25;;;;;24.28;53.94;101473.50;146610;579;46014;-72
2022/11/08 11:57:12;;;;;;;;;42.25;34.00;;;;;22.14;56.19;101100.34;146616;569;46020;-71
2022/11/08 12:00:24;;;;;;;;;39.50;32.75;;;;;24.10;55.37;101461.00;146613;565;46013;-74
2022/11/08 12:04:01;;;;;;;;;34.25;30.50;;;;;22.80;56.95;101270.13;146615;597;46020;-73
2022/11/08 12:07:24;;;;;;;;;36.00;30.00;;;;;23.84;57.46;101469.62;146612;602;46017;-74
2022/11/08 12:11:14;;;;;;;;;36.75;31.00;;;;;22.19;57.72;101199.03;146615;605;46020;-73
2022/11/08 12:14:52;;;;;;;;;37.00;31.50;;;;;23.68;57.85;101462.41;146616;592;46017;-73
2022/11/08 12:18:31;;;;;;;;;37.75;33.00;;;;;23.59;58.46;101464.97;146617;586;46020;-72
2022/11/08 12:21:52;;;;;;;;;33.00;30.00;;;;;23.55;58.36;101465.78;146613;578;46018;-72
2022/11/08 12:25:27;;;;;;;;;38.50;31.25;;;;;23.49;56.82;101462.22;146612;628;46020;-73
2022/11/08 12:29:16;;;;;;;;;37.50;32.75;;;;;22.30;58.17;101281.94;146617;663;46016;-74
2022/11/08 12:32:49;;;;;;;;;33.50;30.50;;;;;22.24;57.61;101263.41;146616;586;46010;-73
2022/11/08 12:36:34;;;;;;;;;;;;;;;;;;;;;
2022/11/08 12:40:21;;;;;;;;;32.00;28.50;;;;;23.52;58.17;101464.91;146613;613;46020;-72
2022/11/08 12:43:56;;;;;;;;;39.00;31.50;;;;;23.63;58.34;101462.34;146612;617;46017;-71
2022/11/08 12:47:26;;;;;;;;;29.25;27.75;;;;;23.68;57.37;101463.28;146620;586;46010;-72
2022/11/08 12:50:50;;;;;;;;;29.00;26.25;;;;;23.72;56.52;101453.63;146616;625;46012;-73
2022/11/08 12:54:13;;;;;;;;;28.50;26.00;;;;;23.71;54.79;101465.13;146618;656;46020;-73
2022/11/08 12:57:16;;;;;;;;;28.50;28.00;;;;;23.65;55.40;101465.03;146613;680;46012;-73
2022/11/08 13:00:22;;;;;;;;;32.25;26.25;;;;;23.54;56.83;101464.91;146615;571;46021;-73
2022/11/08 13:04:11;;;;;;;;;27.00;25.50;;;;;23.42;56.76;101467.44;146612;588;46016;-74
2022/11/08 13:07:42;;;;;;;;;27.00;25.00;;;;;23.28;55.59;101462.00;146616;602;46010;-72
2022/11/08 13:11:09;;;;;;;;;29.50;26.75;;;;;23.05;54.95;101464.37;146613;580;46016;-72
2022/11/08 13:14:08;;;;;;;;;26.25;24.25;;;;;22.91;56.12;101458.00;146615;584;46021;-73
2022/11/08 13:17:33;;;;;;;;;30.75;27.25;;;;;21.87;56.73;101265.53;146613;591;46012;-73
2022/11/08 13:20:52;;;;;;;;;27.75;27.25;;;;;23.09;57.36;101463.56;146619;564;46021;-73
2022/11/08 13:24:27;;;;;;;;;29.50;26.50;;;;;23.11;56.98;101469.72;146613;579;46012;-73
2022/11/08 13:27:59;;;;;;;;;31.75;29.00;;;;;23.13;57.61;101464.47;146615;607;46020;-74
2022/11/08 13:31:08;;;;;;;;;28.00;27.25;;;;;22.00;56.84;101269.22;146613;627;46012;-74
2022/11/08 13:35:12;;;;;;;;;28.25;26.75;;;;;22.26;57.77;101306.53;146616;602;46020;-73
2022/11/08 13:38:55;;;;;;;;;26.50;25.25;;;;;23.20;57.42;101469.84;146613;680;46021;-73
2022/11/08 13:42:46;;;;;;;;;31.25;27.00;;;;;23.17;57.92;101474.22;146614;611;46014;-73
2022/11/08 13:45:42;;;;;;;;;33.25;29.75;;;;;23.17;56.03;101476.84;146617;604;46012;-74
2022/11/08 13:48:43;;;;;;;;;28.50;27.00;;;;;23.10;57.02;101467.97;146609;662;46020;-71
2022/11/08 13:51:38;;;;;;;;;27.50;25.25;;;;;23.01;56.54;101467.84;146612;573;46013;-73
2022/11/08 13:54:51;;;;;;;;;32.75;28.75;;;;;22.77;56.98;101463.09;146704;578;45022;-75
2022/11/08 13:58:36;;;;;;;;;29.75;26.50;;;;;22.54;58.59;101470.75;146617;587;46017;-73
2022/11/08 14:02:10;;;;;;;;;28.75;28.00;;;;;21.17;59.50;101262.66;146620;620;46010;-74
2022/11/08 14:05:29;;;;;;;;;30.50;26.50;;;;;22.21;58.57;101484.31;146612;585;46016;-73
2022/11/08 14:08:25;;;;;;;;;28.50;27.00;;;;;22.02;58.63;101483.12;146618;576;46020;-74
2022/11/08 14:12:10;;;;;;;;;31.25;28.50;;;;;21.77;57.97;101485.34;146611;569;46017;-73
2022/11/08 14:15:25;;;;;;;;;29.25;27.50;;;;;21.37;58.46;101481.09;146618;582;46020;-74
2022/11/08 14:18:44;;;;;;;;;30.00;28.50;;;;;21.06;59.59;101476.91;146612;572;46035;-72
2022/11/08 14:21:53;;;;;;;;;;;;;;;;;;;;;
2022/11/08 14:24:59;;;;;;;;;33.00;29.25;;;;;20.74;61.70;101472.75;146610;577;46018;-73
2022/11/08 14:28:01;;;;;;;;;32.50;28.25;;;;;20.66;62.29;101468.19;146617;583;46021;-73
2022/11/08 14:31:09;;;;;;;;;32.00;30.25;;;;;20.47;62.94;101474.78;146611;570;46016;-71
2022/11/08 14:34:02;;;;;;;;;35.00;28.00;;;;;20.24;63.02;101467.19;146621;676;45020;-72
2022/11/08 14:37:00;;;;;;;;;26.50;25.75;;;;;20.06;63.14;101472.03;146614;629;46012;-73
2022/11/08 14:40:00;;;;;;;;;25.00;21.00;;;;;19.93;64.06;101472.59;146620;586;46020;-72
2022/11/08 14:42:56;;;;;;;;;27.00;24.75;;;;;19.81;64.27;101471.44;146615;612;46017;-72